createdAt,value
2019-01-03T00:01:48.107Z,99939.20
2019-01-03T00:04:43.698Z,99944.95
2019-01-03T00:07:40.228Z,99944.98
2019-01-03T00:10:40.201Z,99951.08
2019-01-03T00:13:29.453Z,99949.39
2019-01-03T00:16:18.988Z,99948.91
2019-01-03T00:19:08.804Z,99949.34
2019-01-03T00:22:02.228Z,99951.87
2019-01-03T00:24:58.813Z,99961.63
2019-01-03T00:28:01.632Z,99954.63
2019-01-03T00:31:08.058Z,99959.20
2019-01-03T00:33:58.811Z,99961.90
2019-01-03T00:36:47.927Z,99969.48
2019-01-03T00:39:27.330Z,99982.94
2019-01-03T00:42:30.307Z,99992.03
2019-01-03T00:45:20.500Z,99986.45
2019-01-03T00:48:10.108Z,99989.06
2019-01-03T00:51:00.764Z,99992.98
2019-01-03T00:53:54.487Z,100009.09
2019-01-03T00:56:43.689Z,100008.70
2019-01-03T00:59:40.798Z,100017.32
2019-01-03T01:02:37.599Z,100017.02
2019-01-03T01:05:46.968Z,100018.02
2019-01-03T01:08:44.108Z,100021.93
2019-01-03T01:11:49.774Z,100022.77
2019-01-03T01:14:39.374Z,100037.73
2019-01-03T01:17:30.025Z,100036.24
2019-01-03T01:20:19.587Z,100042.86
2019-01-03T01:23:09.141Z,100046.47
2019-01-03T01:25:59.796Z,100043.63
2019-01-03T01:28:49.190Z,100047.63
2019-01-03T01:31:40.127Z,100054.78
2019-01-03T01:34:29.918Z,100053.05
2019-01-03T01:37:26.470Z,100057.91
2019-01-03T01:40:35.674Z,100067.17
2019-01-03T01:43:24.873Z,100068.16
2019-01-03T01:46:27.550Z,100065.95
2019-01-03T01:49:28.550Z,100072.42
2019-01-03T01:52:19.207Z,100071.99
2019-01-03T01:55:14.443Z,100074.13
2019-01-03T01:58:11.484Z,100075.47
2019-01-03T02:00:51.137Z,100072.62
2019-01-03T02:03:53.829Z,100069.22
2019-01-03T02:06:56.549Z,100071.40
2019-01-03T02:10:02.418Z,100075.75
2019-01-03T02:12:51.817Z,100079.97
2019-01-03T02:15:40.965Z,100081.28
2019-01-03T02:18:46.686Z,100078.50
2019-01-03T02:21:36.297Z,100079.03
2019-01-03T02:24:23.181Z,100072.55
2019-01-03T02:27:20.184Z,100075.63
2019-01-03T02:30:09.536Z,100073.53
2019-01-03T02:32:58.998Z,100079.19
2019-01-03T02:35:48.521Z,100072.62
2019-01-03T02:38:45.462Z,100071.83
2019-01-03T02:41:51.289Z,100085.27
2019-01-03T02:44:48.511Z,100081.84
2019-01-03T02:47:39.187Z,100077.13
2019-01-03T02:50:38.991Z,100081.59
2019-01-03T02:53:27.232Z,100082.59
2019-01-03T02:56:30.614Z,100068.43
2019-01-03T02:59:19.365Z,100073.30
2019-01-03T03:02:11.610Z,100072.94
2019-01-03T03:05:02.391Z,100069.97
2019-01-03T03:07:51.820Z,100068.30
2019-01-03T03:10:41.402Z,100065.45
2019-01-03T03:13:30.672Z,100062.34
2019-01-03T03:16:24.095Z,100066.36
2019-01-03T03:19:18.171Z,100064.15
2019-01-03T03:22:04.673Z,100061.58
2019-01-03T03:24:54.136Z,100054.70
2019-01-03T03:27:52.344Z,100058.61
2019-01-03T03:31:01.225Z,100051.30
2019-01-03T03:33:54.718Z,100056.88
2019-01-03T03:36:59.917Z,100059.64
2019-01-03T03:39:47.622Z,100057.11
2019-01-03T03:42:36.869Z,100050.55
2019-01-03T03:45:36.451Z,100049.39
2019-01-03T03:48:25.707Z,100045.81
2019-01-03T03:51:13.026Z,100043.20
2019-01-03T03:53:57.933Z,100045.41
2019-01-03T03:56:44.551Z,100044.07
2019-01-03T03:59:34.519Z,100041.18
2019-01-03T04:02:24.130Z,100030.06
2019-01-03T04:05:14.165Z,100033.98
2019-01-03T04:08:03.459Z,100032.71
2019-01-03T04:10:57.095Z,100035.03
2019-01-03T04:13:57.055Z,100035.17
2019-01-03T04:16:59.116Z,100031.34
2019-01-03T04:19:53.998Z,100041.98
2019-01-03T04:22:43.089Z,100033.41
2019-01-03T04:25:51.976Z,100040.96
2019-01-03T04:28:48.787Z,100035.75
2019-01-03T04:31:38.720Z,100036.80
2019-01-03T04:34:44.916Z,100037.30
2019-01-03T04:37:34.661Z,100037.06
2019-01-03T04:40:24.759Z,100030.63
2019-01-03T04:43:13.942Z,100039.20
2019-01-03T04:46:03.710Z,100040.73
2019-01-03T04:48:59.187Z,100039.91
2019-01-03T04:52:02.388Z,100037.87
2019-01-03T04:55:11.774Z,100034.43
2019-01-03T04:58:11.804Z,100038.41
2019-01-03T05:01:04.054Z,100043.20
2019-01-03T05:03:57.771Z,100046.31
2019-01-03T05:06:48.751Z,100051.64
2019-01-03T05:09:51.458Z,100049.88
2019-01-03T05:12:44.133Z,100046.44
2019-01-03T05:15:30.738Z,100054.62
2019-01-03T05:18:22.587Z,100061.25
2019-01-03T05:21:13.027Z,100065.95
2019-01-03T05:24:15.675Z,100057.34
2019-01-03T05:27:21.490Z,100059.48
2019-01-03T05:30:11.018Z,100068.63
2019-01-03T05:33:16.791Z,100067.82
2019-01-03T05:36:13.398Z,100071.13
2019-01-03T05:39:04.383Z,100077.05
2019-01-03T05:42:00.944Z,100071.78
2019-01-03T05:44:50.177Z,100080.05
2019-01-03T05:47:55.949Z,100074.48
2019-01-03T05:50:58.647Z,100080.09
2019-01-03T05:53:41.730Z,100080.52
2019-01-03T05:56:41.899Z,100089.25
2019-01-03T05:59:31.229Z,100090.59
2019-01-03T06:02:24.927Z,100098.39
2019-01-03T06:05:14.394Z,100102.36
2019-01-03T06:08:06.629Z,100100.59
2019-01-03T06:10:52.309Z,100105.86
2019-01-03T06:13:41.544Z,100098.98
2019-01-03T06:16:31.261Z,100098.08
2019-01-03T06:19:20.839Z,100100.70
2019-01-03T06:22:12.281Z,100091.26
2019-01-03T06:25:03.233Z,100091.26
2019-01-03T06:27:54.197Z,100089.47
2019-01-03T06:30:59.959Z,100091.72
2019-01-03T06:33:49.126Z,100089.61
2019-01-03T06:36:38.346Z,100090.07
2019-01-03T06:39:37.664Z,100091.45
2019-01-03T06:42:27.416Z,100093.48
2019-01-03T06:45:31.586Z,100094.98
2019-01-03T06:48:21.222Z,100092.91
2019-01-03T06:51:24.205Z,100095.20
2019-01-03T06:54:24.633Z,100108.67
2019-01-03T06:57:27.350Z,100109.14
2019-01-03T07:00:36.048Z,100110.02
2019-01-03T07:03:27.754Z,100108.86
2019-01-03T07:06:18.454Z,100112.36
2019-01-03T07:09:08.260Z,100121.48
2019-01-03T07:11:58.108Z,100118.17
2019-01-03T07:14:48.766Z,100126.86
2019-01-03T07:17:44.815Z,100126.48
2019-01-03T07:20:47.685Z,100131.63
2019-01-03T07:23:34.988Z,100133.97
2019-01-03T07:26:24.231Z,100136.23
2019-01-03T07:29:27.365Z,100141.44
2019-01-03T07:32:17.090Z,100149.25
2019-01-03T07:35:16.856Z,100155.51
2019-01-03T07:38:14.013Z,100155.95
2019-01-03T07:41:13.951Z,100157.73
2019-01-03T07:44:10.772Z,100142.63
2019-01-03T07:47:00.483Z,100144.86
2019-01-03T07:49:57.051Z,100152.24
2019-01-03T07:52:47.730Z,100149.28
2019-01-03T07:55:32.447Z,100151.92
2019-01-03T07:58:41.531Z,100154.84
2019-01-03T08:01:31.009Z,100160.84
2019-01-03T08:04:20.369Z,100167.24
2019-01-03T08:07:11.059Z,100172.02
2019-01-03T08:10:00.647Z,100172.59
2019-01-03T08:12:54.744Z,100174.34
2019-01-03T08:16:03.684Z,100176.08
2019-01-03T08:18:54.378Z,100183.03
2019-01-03T08:21:43.740Z,100181.81
2019-01-03T08:24:33.273Z,100187.92
2019-01-03T08:27:39.279Z,100179.63
2019-01-03T08:30:28.450Z,100177.71
2019-01-03T08:33:21.892Z,100182.42
2019-01-03T08:36:12.532Z,100170.73
2019-01-03T08:39:02.026Z,100171.83
2019-01-03T08:42:01.604Z,100170.57
2019-01-03T08:44:51.065Z,100177.06
2019-01-03T08:47:41.730Z,100176.38
2019-01-03T08:50:32.400Z,100176.52
2019-01-03T08:53:21.974Z,100175.31
2019-01-03T08:56:21.695Z,100183.85
2019-01-03T08:59:11.416Z,100170.28
2019-01-03T09:02:08.129Z,100166.05
2019-01-03T09:05:07.795Z,100170.77
2019-01-03T09:07:58.487Z,100171.00
2019-01-03T09:10:52.361Z,100173.58
2019-01-03T09:13:55.119Z,100179.95
2019-01-03T09:16:44.499Z,100177.33
2019-01-03T09:19:53.582Z,100181.28
2019-01-03T09:22:50.092Z,100184.42
2019-01-03T09:25:39.488Z,100186.28
2019-01-03T09:28:29.110Z,100186.84
2019-01-03T09:31:35.170Z,100190.55
2019-01-03T09:34:34.963Z,100190.47
2019-01-03T09:37:27.049Z,100193.67
2019-01-03T09:40:15.278Z,100187.17
2019-01-03T09:43:04.458Z,100179.06
2019-01-03T09:45:43.925Z,100178.97
2019-01-03T09:48:09.839Z,100170.39
2019-01-03T09:50:41.685Z,100166.41
2019-01-03T09:53:13.508Z,100162.70
2019-01-03T09:55:45.312Z,100148.22
2019-01-03T09:58:17.192Z,100146.63
2019-01-03T10:00:49.333Z,100146.47
2019-01-03T10:03:21.256Z,100143.59
2019-01-03T10:05:53.081Z,100148.42
2019-01-03T10:08:24.905Z,100144.74
2019-01-03T10:10:56.826Z,100142.15
2019-01-03T10:13:28.660Z,100139.11
2019-01-03T10:16:00.783Z,100141.80
2019-01-03T10:18:32.613Z,100135.47
2019-01-03T10:21:04.455Z,100126.92
2019-01-03T10:23:36.280Z,100124.80
2019-01-03T10:26:08.160Z,100131.17
2019-01-03T10:28:39.954Z,100123.56
2019-01-03T10:31:11.846Z,100132.73
2019-01-03T10:33:44.472Z,100128.96
2019-01-03T10:36:16.551Z,100132.25
2019-01-03T10:38:48.391Z,100136.71
2019-01-03T10:41:20.201Z,100128.13
2019-01-03T10:43:52.052Z,100127.20
2019-01-03T10:46:23.836Z,100126.14
2019-01-03T10:48:55.704Z,100122.75
2019-01-03T10:51:27.493Z,100113.41
2019-01-03T10:53:59.739Z,100106.38
2019-01-03T10:56:32.229Z,100096.84
2019-01-03T10:59:04.335Z,100090.17
2019-01-03T11:01:36.109Z,100085.64
2019-01-03T11:04:07.946Z,100088.59
2019-01-03T11:06:40.505Z,100080.84
2019-01-03T11:09:12.960Z,100079.41
2019-01-03T11:11:45.329Z,100074.09
2019-01-03T11:14:17.737Z,100063.61
2019-01-03T11:16:50.117Z,100055.61
2019-01-03T11:19:22.472Z,100050.58
2019-01-03T11:21:54.994Z,100049.56
2019-01-03T11:24:27.442Z,100045.24
2019-01-03T11:26:59.853Z,100039.41
2019-01-03T11:29:32.217Z,100040.59
2019-01-03T11:32:04.661Z,100037.34
2019-01-03T11:34:37.048Z,100038.05
2019-01-03T11:37:09.435Z,100034.05
2019-01-03T11:39:41.806Z,100026.36
2019-01-03T11:42:14.189Z,100028.61
2019-01-03T11:44:46.590Z,100023.60
2019-01-03T11:47:18.975Z,100017.52
2019-01-03T11:49:51.396Z,100016.49
2019-01-03T11:52:23.846Z,100016.08
2019-01-03T11:54:56.468Z,100019.24
2019-01-03T11:57:28.279Z,100006.57
2019-01-03T12:00:00.669Z,100009.67
2019-01-03T12:02:32.999Z,100013.99
2019-01-03T12:05:05.587Z,100005.83
2019-01-03T12:07:37.414Z,100002.44
2019-01-03T12:10:09.798Z,100002.56
2019-01-03T12:12:42.415Z,100000.06
2019-01-03T12:15:14.229Z,100000.48
2019-01-03T12:17:48.400Z,99997.83
2019-01-03T12:20:20.750Z,99990.38
2019-01-03T12:22:53.097Z,99988.27
2019-01-03T12:25:27.089Z,99990.38
2019-01-03T12:27:59.444Z,99993.19
2019-01-03T12:30:31.786Z,99996.27
2019-01-03T12:33:04.130Z,99986.95
2019-01-03T12:35:36.573Z,99993.31
2019-01-03T12:38:09.207Z,99985.64
2019-01-03T12:40:41.061Z,99988.02
2019-01-03T12:43:13.460Z,99988.58
2019-01-03T12:45:46.325Z,99981.16
2019-01-03T12:48:18.411Z,99989.64
2019-01-03T12:50:51.058Z,99985.03
2019-01-03T12:53:22.886Z,99988.39
2019-01-03T12:55:55.342Z,99988.16
2019-01-03T12:58:27.885Z,99978.64
2019-01-03T13:01:00.403Z,99987.07
2019-01-03T13:03:32.797Z,99975.16
2019-01-03T13:06:05.259Z,99981.00
2019-01-03T13:08:37.627Z,99980.88
2019-01-03T13:11:09.995Z,99979.70
2019-01-03T13:13:42.402Z,99983.15
2019-01-03T13:16:14.800Z,99979.51
2019-01-03T13:18:47.181Z,99982.83
2019-01-03T13:21:19.554Z,99984.09
2019-01-03T13:23:51.914Z,99978.02
2019-01-03T13:26:24.397Z,99983.49
2019-01-03T13:28:56.763Z,99980.20
2019-01-03T13:31:29.197Z,99981.27
2019-01-03T13:34:01.543Z,99978.89
2019-01-03T13:36:33.985Z,99988.31
2019-01-03T13:39:08.693Z,99982.56
2019-01-03T13:41:41.091Z,99983.88
2019-01-03T13:44:13.544Z,99977.45
2019-01-03T13:46:45.911Z,99983.50
2019-01-03T13:49:18.542Z,99979.02
2019-01-03T13:51:50.441Z,99977.44
2019-01-03T13:54:22.807Z,99977.30
2019-01-03T13:56:55.232Z,99979.06
2019-01-03T13:59:27.658Z,99977.95
2019-01-03T14:02:00.124Z,99975.06
2019-01-03T14:04:32.876Z,99975.57
2019-01-03T14:07:04.683Z,99975.91
2019-01-03T14:09:37.059Z,99983.36
2019-01-03T14:12:09.601Z,99978.23
2019-01-03T14:14:41.960Z,99984.31
2019-01-03T14:17:14.346Z,99984.44
2019-01-03T14:19:46.709Z,99986.25
2019-01-03T14:22:19.116Z,100002.03
2019-01-03T14:24:51.763Z,100004.65
2019-01-03T14:27:24.160Z,99996.73
2019-01-03T14:29:56.571Z,100004.34
2019-01-03T14:32:28.943Z,100006.52
2019-01-03T14:35:01.318Z,100010.05
2019-01-03T14:37:33.687Z,100010.31
2019-01-03T14:40:06.896Z,100010.65
2019-01-03T14:42:38.989Z,100016.79
2019-01-03T14:45:11.633Z,100009.87
2019-01-03T14:47:43.466Z,100010.56
2019-01-03T14:50:15.806Z,99994.26
2019-01-03T14:52:48.191Z,99993.87
2019-01-03T14:55:20.552Z,99989.05
2019-01-03T14:57:52.968Z,99997.27
2019-01-03T15:00:25.404Z,99994.00
2019-01-03T15:02:59.292Z,99990.17
2019-01-03T15:05:31.079Z,99990.38
2019-01-03T15:08:03.464Z,99994.30
2019-01-03T15:10:35.525Z,99991.31
2019-01-03T15:13:07.368Z,99990.10
2019-01-03T15:15:39.148Z,99989.23
2019-01-03T15:18:10.968Z,99990.34
2019-01-03T15:20:42.781Z,99988.70
2019-01-03T15:23:14.887Z,99986.72
2019-01-03T15:25:46.728Z,99995.97
2019-01-03T15:28:18.539Z,100000.08
2019-01-03T15:30:51.670Z,100004.00
2019-01-03T15:33:23.495Z,100003.80
2019-01-03T15:35:55.310Z,100014.30
2019-01-03T15:38:27.539Z,100013.61
2019-01-03T15:40:59.624Z,100015.05
2019-01-03T15:43:31.694Z,100009.87
2019-01-03T15:46:03.790Z,100003.50
2019-01-03T15:48:35.717Z,100005.09
2019-01-03T15:51:07.527Z,100009.11
2019-01-03T15:53:39.359Z,100000.92
2019-01-03T15:56:11.252Z,100002.62
2019-01-03T15:58:43.442Z,99993.66
2019-01-03T16:01:16.008Z,100004.11
2019-01-03T16:03:48.100Z,100006.72
2019-01-03T16:06:20.217Z,100008.42
2019-01-03T16:08:52.057Z,100015.29
2019-01-03T16:11:23.885Z,100018.73
2019-01-03T16:13:55.738Z,100020.13
2019-01-03T16:16:27.548Z,100023.27
2019-01-03T16:18:59.500Z,100022.48
2019-01-03T16:21:31.562Z,100023.88
2019-01-03T16:24:03.383Z,100015.56
2019-01-03T16:26:35.164Z,100019.97
2019-01-03T16:29:08.085Z,100015.27
2019-01-03T16:31:42.558Z,100024.58
2019-01-03T16:34:13.477Z,100014.18
2019-01-03T16:36:45.534Z,100020.36
2019-01-03T16:39:17.646Z,100018.32
2019-01-03T16:41:49.545Z,100019.63
2019-01-03T16:44:21.389Z,100018.80
2019-01-03T16:46:53.167Z,100024.59
2019-01-03T16:49:25.006Z,100020.93
2019-01-03T16:51:57.126Z,100015.48
2019-01-03T16:54:29.033Z,100014.36
2019-01-03T16:57:00.917Z,100012.54
2019-01-03T16:59:33.024Z,100005.92
2019-01-03T17:02:05.084Z,100010.01
2019-01-03T17:04:37.273Z,100004.31
2019-01-03T17:07:09.421Z,100012.88
2019-01-03T17:09:41.308Z,100017.67
2019-01-03T17:12:14.555Z,100011.92
2019-01-03T17:14:46.379Z,100016.28
2019-01-03T17:17:18.636Z,100023.41
2019-01-03T17:19:51.232Z,100023.41
2019-01-03T17:22:23.746Z,100022.89
2019-01-03T17:24:55.951Z,100016.80
2019-01-03T17:27:27.748Z,100015.84
2019-01-03T17:29:59.601Z,100016.28
2019-01-03T17:32:32.459Z,100013.63
2019-01-03T17:35:05.066Z,100023.23
2019-01-03T17:37:37.141Z,100020.67
2019-01-03T17:40:20.411Z,100019.02
2019-01-03T17:42:51.319Z,100022.45
2019-01-03T17:45:23.127Z,100027.20
2019-01-03T17:47:54.965Z,100027.23
2019-01-03T17:50:27.249Z,100026.73
2019-01-03T17:52:59.325Z,100028.46
2019-01-03T17:55:31.348Z,100037.13
2019-01-03T17:58:04.009Z,100037.55
2019-01-03T18:00:37.368Z,100030.55
2019-01-03T18:03:09.270Z,100033.68
2019-01-03T18:05:41.101Z,100035.38
2019-01-03T18:08:12.935Z,100049.30
2019-01-03T18:10:51.847Z,100055.79
2019-01-03T18:13:23.692Z,100059.28
2019-01-03T18:15:55.514Z,100067.63
2019-01-03T18:18:28.902Z,100065.02
2019-01-03T18:21:06.713Z,100064.59
2019-01-03T18:23:38.849Z,100065.98
2019-01-03T18:26:11.020Z,100073.81
2019-01-03T18:28:42.977Z,100060.80
2019-01-03T18:31:15.517Z,100058.66
2019-01-03T18:33:47.862Z,100058.19
2019-01-03T18:36:19.677Z,100053.87
2019-01-03T18:38:51.541Z,100052.61
2019-01-03T18:41:26.789Z,100053.92
2019-01-03T18:43:58.596Z,100064.88
2019-01-03T18:46:30.413Z,100064.45
2019-01-03T18:49:02.635Z,100061.52
2019-01-03T18:51:34.738Z,100059.82
2019-01-03T18:54:06.587Z,100056.27
2019-01-03T18:56:38.454Z,100044.95
2019-01-03T18:59:10.442Z,100048.08
2019-01-03T19:01:42.877Z,100041.98
2019-01-03T19:05:00.691Z,100044.08
2019-01-03T19:07:32.645Z,100040.08
2019-01-03T19:10:05.051Z,100040.08
2019-01-03T19:12:37.535Z,100033.50
2019-01-03T19:15:10.642Z,100027.85
2019-01-03T19:17:42.803Z,100018.23
2019-01-03T19:20:14.963Z,100023.41
2019-01-03T19:22:46.879Z,100016.45
2019-01-03T19:25:21.437Z,100029.07
2019-01-03T19:27:53.501Z,100028.63
2019-01-03T19:30:25.966Z,100031.64
2019-01-03T19:33:03.103Z,100028.20
2019-01-03T19:35:34.599Z,100026.81
2019-01-03T19:38:11.158Z,100024.72
2019-01-03T19:40:43.365Z,100021.23
2019-01-03T19:43:17.199Z,100018.72
2019-01-03T19:45:49.306Z,100011.80
2019-01-03T19:48:21.710Z,100003.96
2019-01-03T19:50:54.142Z,100003.19
2019-01-03T19:53:25.988Z,100007.92
2019-01-03T19:55:58.072Z,100021.88
2019-01-03T19:58:30.018Z,100023.59
2019-01-03T20:01:02.017Z,100034.64
2019-01-03T20:03:35.016Z,100039.02
2019-01-03T20:06:07.244Z,100037.20
2019-01-03T20:08:39.316Z,100040.29
2019-01-03T20:11:12.330Z,100027.28
2019-01-03T20:13:44.578Z,100035.94
2019-01-03T20:16:16.741Z,100033.80
2019-01-03T20:18:49.009Z,100028.98
2019-01-03T20:21:20.957Z,100035.90
2019-01-03T20:23:52.818Z,100037.72
2019-01-03T20:26:24.670Z,100038.11
2019-01-03T20:28:58.068Z,100034.64
2019-01-03T20:31:33.337Z,100039.33
2019-01-03T20:34:05.222Z,100033.20
2019-01-03T20:36:37.146Z,100023.59
2019-01-03T20:39:09.146Z,100018.41
2019-01-03T20:41:41.387Z,100023.59
2019-01-03T20:44:13.513Z,100020.97
2019-01-03T20:46:45.429Z,100015.31
2019-01-03T20:49:17.386Z,100020.97
2019-01-03T20:51:49.807Z,100012.23
2019-01-03T20:54:22.548Z,100012.19
2019-01-03T20:56:54.745Z,100007.44
2019-01-03T20:59:26.663Z,100009.53
2019-01-03T21:01:59.014Z,100004.36
2019-01-03T21:04:30.945Z,100010.09
2019-01-03T21:07:03.892Z,100018.80
2019-01-03T21:09:36.097Z,100009.71
2019-01-03T21:12:08.842Z,100014.49
2019-01-03T21:14:41.203Z,100021.45
2019-01-03T21:17:16.439Z,100026.28
2019-01-03T21:19:49.793Z,100025.80
2019-01-03T21:22:21.666Z,100025.84
2019-01-03T21:24:53.869Z,100027.59
2019-01-03T21:27:26.443Z,100027.11
2019-01-03T21:29:59.049Z,100040.59
2019-01-03T21:32:31.179Z,100038.42
2019-01-03T21:35:03.082Z,100036.68
2019-01-03T21:37:35.154Z,100043.64
2019-01-03T21:40:09.522Z,100042.30
2019-01-03T21:42:41.485Z,100050.09
2019-01-03T21:45:13.538Z,100053.21
2019-01-03T21:47:45.792Z,100062.30
2019-01-03T21:50:17.980Z,100062.74
2019-01-03T21:52:49.916Z,100067.09
2019-01-03T21:55:22.243Z,100067.97
2019-01-03T21:57:54.748Z,100066.66
2019-01-03T22:00:26.979Z,100071.48
2019-01-03T22:02:58.599Z,100065.31
2019-01-03T22:05:30.518Z,100064.09
2019-01-03T22:08:02.595Z,100057.92
2019-01-03T22:10:34.558Z,100061.05
2019-01-03T22:13:06.898Z,100064.48
2019-01-03T22:15:39.876Z,100053.21
2019-01-03T22:18:12.290Z,100061.05
2019-01-03T22:20:44.266Z,100058.44
2019-01-03T22:23:16.124Z,100051.04
2019-01-03T22:25:47.998Z,100051.39
2019-01-03T22:28:20.316Z,100043.64
2019-01-03T22:30:52.825Z,100047.56
2019-01-03T22:33:25.018Z,100047.98
2019-01-03T22:35:57.134Z,100043.64
2019-01-03T22:38:29.338Z,100043.25
2019-01-03T22:41:01.482Z,100048.08
2019-01-03T22:43:33.307Z,100041.08
2019-01-03T22:46:05.217Z,100037.63
2019-01-03T22:48:37.133Z,100031.94
2019-01-03T22:51:09.171Z,100038.47
2019-01-03T22:53:41.285Z,100027.19
2019-01-03T22:56:13.184Z,100037.63
2019-01-03T22:58:45.112Z,100037.67
2019-01-03T23:01:17.112Z,100034.68
2019-01-03T23:03:49.020Z,100039.59
2019-01-03T23:06:20.911Z,100043.67
2019-01-03T23:08:52.794Z,100049.80
2019-01-03T23:11:24.723Z,100054.75
2019-01-03T23:13:56.531Z,100051.70
2019-01-03T23:16:28.472Z,100049.48
2019-01-03T23:19:00.243Z,100054.40
2019-01-03T23:21:32.081Z,100053.09
2019-01-03T23:24:03.884Z,100053.61
2019-01-03T23:26:35.716Z,100054.88
2019-01-03T23:29:07.521Z,100062.73
2019-01-03T23:31:39.308Z,100067.56
2019-01-03T23:34:11.154Z,100068.43
2019-01-03T23:36:42.992Z,100076.22
2019-01-03T23:39:14.799Z,100084.59
2019-01-03T23:41:46.618Z,100082.03
2019-01-03T23:44:18.431Z,100088.13
2019-01-03T23:46:50.782Z,100085.52
2019-01-03T23:49:22.920Z,100083.81
2019-01-03T23:51:54.783Z,100075.59
2019-01-03T23:54:26.601Z,100076.97
2019-01-03T23:56:58.884Z,100077.84
2019-01-03T23:59:30.990Z,100079.98
